sensor_id;sensor_type;location;lat;lon;timestamp;temperature;humidity
7720;DHT22;3902;49.474;8.616;2023-04-24T00:00:34;13.40;99.90
7720;DHT22;3902;49.474;8.616;2023-04-24T00:03:01;13.40;99.90
7720;DHT22;3902;49.474;8.616;2023-04-24T00:05:28;13.40;99.90
7720;DHT22;3902;49.474;8.616;2023-04-24T00:07:53;13.40;99.90
7720;DHT22;3902;49.474;8.616;2023-04-24T00:10:20;13.40;99.90
7720;DHT22;3902;49.474;8.616;2023-04-24T00:12:45;13.40;99.90
7720;DHT22;3902;49.474;8.616;2023-04-24T00:15:11;13.40;99.90
7720;DHT22;3902;49.474;8.616;2023-04-24T00:17:37;13.40;99.90
7720;DHT22;3902;49.474;8.616;2023-04-24T00:20:03;13.40;99.90
7720;DHT22;3902;49.474;8.616;2023-04-24T00:22:30;13.30;99.90
7720;DHT22;3902;49.474;8.616;2023-04-24T00:24:56;13.30;99.90
7720;DHT22;3902;49.474;8.616;2023-04-24T00:27:22;13.30;99.90
7720;DHT22;3902;49.474;8.616;2023-04-24T00:29:47;13.30;99.90
7720;DHT22;3902;49.474;8.616;2023-04-24T00:32:13;13.20;99.90
7720;DHT22;3902;49.474;8.616;2023-04-24T00:34:39;13.30;99.90
7720;DHT22;3902;49.474;8.616;2023-04-24T00:37:07;13.30;99.90
7720;DHT22;3902;49.474;8.616;2023-04-24T00:39:33;13.30;99.90
7720;DHT22;3902;49.474;8.616;2023-04-24T00:41:58;13.30;99.90
7720;DHT22;3902;49.474;8.616;2023-04-24T00:44:24;13.30;99.90
7720;DHT22;3902;49.474;8.616;2023-04-24T00:46:50;13.30;99.90
7720;DHT22;3902;49.474;8.616;2023-04-24T00:49:20;13.30;99.90
7720;DHT22;3902;49.474;8.616;2023-04-24T00:51:45;13.40;99.90
7720;DHT22;3902;49.474;8.616;2023-04-24T00:54:12;13.30;99.90
7720;DHT22;3902;49.474;8.616;2023-04-24T00:56:38;13.40;99.90
7720;DHT22;3902;49.474;8.616;2023-04-24T00:59:03;13.40;99.90
7720;DHT22;3902;49.474;8.616;2023-04-24T01:01:29;13.30;99.90
7720;DHT22;3902;49.474;8.616;2023-04-24T01:03:56;13.30;99.90
7720;DHT22;3902;49.474;8.616;2023-04-24T01:06:22;13.40;99.90
7720;DHT22;3902;49.474;8.616;2023-04-24T01:08:48;13.40;99.90
7720;DHT22;3902;49.474;8.616;2023-04-24T01:11:14;13.40;99.90
7720;DHT22;3902;49.474;8.616;2023-04-24T01:13:40;13.40;99.90
7720;DHT22;3902;49.474;8.616;2023-04-24T01:16:06;13.30;99.90
7720;DHT22;3902;49.474;8.616;2023-04-24T01:18:32;13.40;99.90
7720;DHT22;3902;49.474;8.616;2023-04-24T01:20:58;13.40;99.90
7720;DHT22;3902;49.474;8.616;2023-04-24T01:23:24;13.40;99.90
7720;DHT22;3902;49.474;8.616;2023-04-24T01:25:50;13.30;99.90
7720;DHT22;3902;49.474;8.616;2023-04-24T01:28:16;13.30;99.90
7720;DHT22;3902;49.474;8.616;2023-04-24T01:30:42;13.30;99.90
7720;DHT22;3902;49.474;8.616;2023-04-24T01:33:08;13.30;99.90
7720;DHT22;3902;49.474;8.616;2023-04-24T01:35:33;13.40;99.90
7720;DHT22;3902;49.474;8.616;2023-04-24T01:38:01;13.30;99.90
7720;DHT22;3902;49.474;8.616;2023-04-24T01:40:27;13.30;99.90
7720;DHT22;3902;49.474;8.616;2023-04-24T01:42:52;13.30;99.90
7720;DHT22;3902;49.474;8.616;2023-04-24T01:45:18;13.40;99.90
7720;DHT22;3902;49.474;8.616;2023-04-24T01:47:44;13.30;99.90
7720;DHT22;3902;49.474;8.616;2023-04-24T01:50:10;13.30;99.90
7720;DHT22;3902;49.474;8.616;2023-04-24T01:52:36;13.30;99.90
7720;DHT22;3902;49.474;8.616;2023-04-24T01:55:05;13.30;99.90
7720;DHT22;3902;49.474;8.616;2023-04-24T01:57:31;13.20;99.90
7720;DHT22;3902;49.474;8.616;2023-04-24T01:59:57;13.20;99.90
7720;DHT22;3902;49.474;8.616;2023-04-24T02:02:23;13.30;99.90
7720;DHT22;3902;49.474;8.616;2023-04-24T02:04:55;13.30;99.90
7720;DHT22;3902;49.474;8.616;2023-04-24T02:07:21;13.30;99.90
7720;DHT22;3902;49.474;8.616;2023-04-24T02:09:47;13.30;99.90
7720;DHT22;3902;49.474;8.616;2023-04-24T02:12:12;13.30;99.90
7720;DHT22;3902;49.474;8.616;2023-04-24T02:14:38;13.30;99.90
7720;DHT22;3902;49.474;8.616;2023-04-24T02:17:04;13.30;99.90
7720;DHT22;3902;49.474;8.616;2023-04-24T02:19:30;13.30;99.90
7720;DHT22;3902;49.474;8.616;2023-04-24T02:21:55;13.30;99.90
7720;DHT22;3902;49.474;8.616;2023-04-24T02:24:21;13.20;99.90
7720;DHT22;3902;49.474;8.616;2023-04-24T02:26:46;13.30;99.90
7720;DHT22;3902;49.474;8.616;2023-04-24T02:29:12;13.20;99.90
7720;DHT22;3902;49.474;8.616;2023-04-24T02:31:38;13.20;99.90
7720;DHT22;3902;49.474;8.616;2023-04-24T02:34:03;13.10;99.90
7720;DHT22;3902;49.474;8.616;2023-04-24T02:36:29;13.20;99.90
7720;DHT22;3902;49.474;8.616;2023-04-24T02:38:55;13.10;99.90
7720;DHT22;3902;49.474;8.616;2023-04-24T02:41:21;13.10;99.90
7720;DHT22;3902;49.474;8.616;2023-04-24T02:43:46;13.00;99.90
7720;DHT22;3902;49.474;8.616;2023-04-24T02:46:12;13.00;99.90
7720;DHT22;3902;49.474;8.616;2023-04-24T02:48:37;13.00;99.90
7720;DHT22;3902;49.474;8.616;2023-04-24T02:51:03;13.00;99.90
7720;DHT22;3902;49.474;8.616;2023-04-24T02:53:29;13.00;99.90
7720;DHT22;3902;49.474;8.616;2023-04-24T02:55:56;12.90;99.90
7720;DHT22;3902;49.474;8.616;2023-04-24T02:58:22;12.90;99.90
7720;DHT22;3902;49.474;8.616;2023-04-24T03:00:47;12.80;99.90
7720;DHT22;3902;49.474;8.616;2023-04-24T03:03:13;12.80;99.90
7720;DHT22;3902;49.474;8.616;2023-04-24T03:05:39;12.80;99.90
7720;DHT22;3902;49.474;8.616;2023-04-24T03:08:04;12.60;99.90
7720;DHT22;3902;49.474;8.616;2023-04-24T03:10:30;12.50;99.90
7720;DHT22;3902;49.474;8.616;2023-04-24T03:12:55;12.40;99.90
7720;DHT22;3902;49.474;8.616;2023-04-24T03:15:21;12.50;99.90
7720;DHT22;3902;49.474;8.616;2023-04-24T03:17:47;12.50;99.90
7720;DHT22;3902;49.474;8.616;2023-04-24T03:20:13;12.40;99.90
7720;DHT22;3902;49.474;8.616;2023-04-24T03:22:38;12.40;99.90
7720;DHT22;3902;49.474;8.616;2023-04-24T03:25:04;12.50;99.90
7720;DHT22;3902;49.474;8.616;2023-04-24T03:27:30;12.50;99.90
7720;DHT22;3902;49.474;8.616;2023-04-24T03:29:56;12.50;99.90
7720;DHT22;3902;49.474;8.616;2023-04-24T03:32:22;12.50;99.90
7720;DHT22;3902;49.474;8.616;2023-04-24T03:34:48;12.50;99.90
7720;DHT22;3902;49.474;8.616;2023-04-24T03:37:14;12.50;99.90
7720;DHT22;3902;49.474;8.616;2023-04-24T03:39:40;12.50;99.90
7720;DHT22;3902;49.474;8.616;2023-04-24T03:42:05;12.50;99.90
7720;DHT22;3902;49.474;8.616;2023-04-24T03:44:31;12.50;99.90
7720;DHT22;3902;49.474;8.616;2023-04-24T03:46:57;12.50;99.90
7720;DHT22;3902;49.474;8.616;2023-04-24T03:49:23;12.50;99.90
7720;DHT22;3902;49.474;8.616;2023-04-24T03:51:49;12.50;99.90
7720;DHT22;3902;49.474;8.616;2023-04-24T03:54:14;12.50;99.90
7720;DHT22;3902;49.474;8.616;2023-04-24T03:56:40;12.50;99.90
7720;DHT22;3902;49.474;8.616;2023-04-24T03:59:05;12.50;99.90
7720;DHT22;3902;49.474;8.616;2023-04-24T04:01:31;12.50;99.90
7720;DHT22;3902;49.474;8.616;2023-04-24T04:03:56;12.50;99.90
7720;DHT22;3902;49.474;8.616;2023-04-24T04:06:22;12.50;99.90
7720;DHT22;3902;49.474;8.616;2023-04-24T04:08:47;12.40;99.90
7720;DHT22;3902;49.474;8.616;2023-04-24T04:11:13;12.40;99.90
7720;DHT22;3902;49.474;8.616;2023-04-24T04:13:39;12.40;99.90
7720;DHT22;3902;49.474;8.616;2023-04-24T04:16:04;12.40;99.90
7720;DHT22;3902;49.474;8.616;2023-04-24T04:18:30;12.40;99.90
7720;DHT22;3902;49.474;8.616;2023-04-24T04:20:56;12.40;99.90
7720;DHT22;3902;49.474;8.616;2023-04-24T04:23:22;12.30;99.90
7720;DHT22;3902;49.474;8.616;2023-04-24T04:25:48;12.30;99.90
7720;DHT22;3902;49.474;8.616;2023-04-24T04:28:15;12.20;99.90
7720;DHT22;3902;49.474;8.616;2023-04-24T04:30:40;12.20;99.90
7720;DHT22;3902;49.474;8.616;2023-04-24T04:33:06;12.10;99.90
7720;DHT22;3902;49.474;8.616;2023-04-24T04:35:33;12.00;99.90
7720;DHT22;3902;49.474;8.616;2023-04-24T04:37:59;12.10;99.90
7720;DHT22;3902;49.474;8.616;2023-04-24T04:40:24;12.00;99.90
7720;DHT22;3902;49.474;8.616;2023-04-24T04:42:50;12.00;99.90
7720;DHT22;3902;49.474;8.616;2023-04-24T04:45:18;11.90;99.90
7720;DHT22;3902;49.474;8.616;2023-04-24T04:47:44;11.90;99.90
7720;DHT22;3902;49.474;8.616;2023-04-24T04:50:10;11.90;99.90
7720;DHT22;3902;49.474;8.616;2023-04-24T04:52:35;11.90;99.90
7720;DHT22;3902;49.474;8.616;2023-04-24T04:55:01;11.80;99.90
7720;DHT22;3902;49.474;8.616;2023-04-24T04:57:27;11.80;99.90
7720;DHT22;3902;49.474;8.616;2023-04-24T04:59:52;11.80;99.90
7720;DHT22;3902;49.474;8.616;2023-04-24T05:02:18;11.80;99.90
7720;DHT22;3902;49.474;8.616;2023-04-24T05:04:43;11.80;99.90
7720;DHT22;3902;49.474;8.616;2023-04-24T05:07:10;11.70;99.90
7720;DHT22;3902;49.474;8.616;2023-04-24T05:09:36;11.70;99.90
7720;DHT22;3902;49.474;8.616;2023-04-24T05:12:01;11.70;99.90
7720;DHT22;3902;49.474;8.616;2023-04-24T05:14:27;11.70;99.90
7720;DHT22;3902;49.474;8.616;2023-04-24T05:16:52;11.70;99.90
7720;DHT22;3902;49.474;8.616;2023-04-24T05:19:18;11.70;99.90
7720;DHT22;3902;49.474;8.616;2023-04-24T05:21:44;11.80;99.90
7720;DHT22;3902;49.474;8.616;2023-04-24T05:24:09;11.80;99.90
7720;DHT22;3902;49.474;8.616;2023-04-24T05:26:35;11.90;99.90
7720;DHT22;3902;49.474;8.616;2023-04-24T05:29:01;11.90;99.90
7720;DHT22;3902;49.474;8.616;2023-04-24T05:31:26;11.90;99.90
7720;DHT22;3902;49.474;8.616;2023-04-24T05:33:52;11.90;99.90
7720;DHT22;3902;49.474;8.616;2023-04-24T05:36:17;12.00;99.90
7720;DHT22;3902;49.474;8.616;2023-04-24T05:38:43;12.00;99.90
7720;DHT22;3902;49.474;8.616;2023-04-24T05:41:08;12.10;99.90
7720;DHT22;3902;49.474;8.616;2023-04-24T05:43:34;12.10;99.90
7720;DHT22;3902;49.474;8.616;2023-04-24T05:45:59;12.10;99.90
7720;DHT22;3902;49.474;8.616;2023-04-24T05:48:25;12.10;99.90
7720;DHT22;3902;49.474;8.616;2023-04-24T05:50:51;12.10;99.90
7720;DHT22;3902;49.474;8.616;2023-04-24T05:53:18;12.10;99.90
7720;DHT22;3902;49.474;8.616;2023-04-24T05:55:43;12.10;99.90
7720;DHT22;3902;49.474;8.616;2023-04-24T05:58:09;12.10;99.90
7720;DHT22;3902;49.474;8.616;2023-04-24T06:00:35;12.20;99.90
7720;DHT22;3902;49.474;8.616;2023-04-24T06:03:01;12.30;99.90
7720;DHT22;3902;49.474;8.616;2023-04-24T06:05:27;12.20;99.90
7720;DHT22;3902;49.474;8.616;2023-04-24T06:07:53;12.20;99.90
7720;DHT22;3902;49.474;8.616;2023-04-24T06:10:19;12.20;99.90
7720;DHT22;3902;49.474;8.616;2023-04-24T06:12:44;12.30;99.90
7720;DHT22;3902;49.474;8.616;2023-04-24T06:15:10;12.30;99.90
7720;DHT22;3902;49.474;8.616;2023-04-24T06:17:35;12.30;99.90
7720;DHT22;3902;49.474;8.616;2023-04-24T06:20:01;12.30;99.90
7720;DHT22;3902;49.474;8.616;2023-04-24T06:22:29;12.20;99.90
7720;DHT22;3902;49.474;8.616;2023-04-24T06:24:55;12.20;99.90
7720;DHT22;3902;49.474;8.616;2023-04-24T06:27:21;12.20;99.90
7720;DHT22;3902;49.474;8.616;2023-04-24T06:29:46;12.10;99.90
7720;DHT22;3902;49.474;8.616;2023-04-24T06:32:17;12.00;99.90
7720;DHT22;3902;49.474;8.616;2023-04-24T06:34:43;12.00;99.90
7720;DHT22;3902;49.474;8.616;2023-04-24T06:37:08;12.00;99.90
7720;DHT22;3902;49.474;8.616;2023-04-24T06:39:34;11.90;99.90
7720;DHT22;3902;49.474;8.616;2023-04-24T06:42:00;11.70;99.90
7720;DHT22;3902;49.474;8.616;2023-04-24T06:44:25;11.70;99.90
7720;DHT22;3902;49.474;8.616;2023-04-24T06:46:51;11.70;99.90
7720;DHT22;3902;49.474;8.616;2023-04-24T06:49:17;11.50;99.90
7720;DHT22;3902;49.474;8.616;2023-04-24T06:51:42;11.40;99.90
7720;DHT22;3902;49.474;8.616;2023-04-24T06:54:08;11.30;99.90
7720;DHT22;3902;49.474;8.616;2023-04-24T06:56:33;11.30;99.90
7720;DHT22;3902;49.474;8.616;2023-04-24T06:58:59;11.30;99.90
7720;DHT22;3902;49.474;8.616;2023-04-24T07:01:25;11.20;99.90
7720;DHT22;3902;49.474;8.616;2023-04-24T07:03:50;11.10;99.90
7720;DHT22;3902;49.474;8.616;2023-04-24T07:06:16;11.10;99.90
7720;DHT22;3902;49.474;8.616;2023-04-24T07:08:43;10.90;99.90
7720;DHT22;3902;49.474;8.616;2023-04-24T07:11:09;11.00;99.90
7720;DHT22;3902;49.474;8.616;2023-04-24T07:13:34;11.00;99.90
7720;DHT22;3902;49.474;8.616;2023-04-24T07:16:00;11.00;99.90
7720;DHT22;3902;49.474;8.616;2023-04-24T07:18:26;10.90;99.90
7720;DHT22;3902;49.474;8.616;2023-04-24T07:20:51;11.00;99.90
7720;DHT22;3902;49.474;8.616;2023-04-24T07:23:18;11.10;99.90
7720;DHT22;3902;49.474;8.616;2023-04-24T07:25:43;11.10;99.90
7720;DHT22;3902;49.474;8.616;2023-04-24T07:28:09;11.20;99.90
7720;DHT22;3902;49.474;8.616;2023-04-24T07:30:35;11.10;99.90
7720;DHT22;3902;49.474;8.616;2023-04-24T07:33:00;11.00;99.90
7720;DHT22;3902;49.474;8.616;2023-04-24T07:35:26;11.10;99.90
7720;DHT22;3902;49.474;8.616;2023-04-24T07:37:55;11.10;99.90
7720;DHT22;3902;49.474;8.616;2023-04-24T07:40:21;11.10;99.90
7720;DHT22;3902;49.474;8.616;2023-04-24T07:42:47;11.20;99.90
7720;DHT22;3902;49.474;8.616;2023-04-24T07:45:16;11.10;99.90
7720;DHT22;3902;49.474;8.616;2023-04-24T07:47:42;11.20;99.90
7720;DHT22;3902;49.474;8.616;2023-04-24T07:50:09;11.20;99.90
7720;DHT22;3902;49.474;8.616;2023-04-24T07:52:35;11.20;99.90
7720;DHT22;3902;49.474;8.616;2023-04-24T07:55:01;11.20;99.90
7720;DHT22;3902;49.474;8.616;2023-04-24T07:57:27;11.10;99.90
7720;DHT22;3902;49.474;8.616;2023-04-24T07:59:53;11.10;99.90
7720;DHT22;3902;49.474;8.616;2023-04-24T08:02:19;11.30;99.90
7720;DHT22;3902;49.474;8.616;2023-04-24T08:04:45;11.40;99.90
7720;DHT22;3902;49.474;8.616;2023-04-24T08:07:10;11.30;99.90
7720;DHT22;3902;49.474;8.616;2023-04-24T08:09:38;11.40;99.90
7720;DHT22;3902;49.474;8.616;2023-04-24T08:12:03;11.40;99.90
7720;DHT22;3902;49.474;8.616;2023-04-24T08:14:29;11.40;99.90
7720;DHT22;3902;49.474;8.616;2023-04-24T08:16:55;11.50;99.90
7720;DHT22;3902;49.474;8.616;2023-04-24T08:19:21;11.60;99.90
7720;DHT22;3902;49.474;8.616;2023-04-24T08:21:46;11.70;99.90
7720;DHT22;3902;49.474;8.616;2023-04-24T08:24:12;11.70;99.90
7720;DHT22;3902;49.474;8.616;2023-04-24T08:26:38;11.70;99.90
7720;DHT22;3902;49.474;8.616;2023-04-24T08:29:04;11.70;99.90
7720;DHT22;3902;49.474;8.616;2023-04-24T08:31:29;11.70;99.90
7720;DHT22;3902;49.474;8.616;2023-04-24T08:33:55;11.80;99.90
7720;DHT22;3902;49.474;8.616;2023-04-24T08:36:21;11.80;99.90
7720;DHT22;3902;49.474;8.616;2023-04-24T08:38:47;11.80;99.90
7720;DHT22;3902;49.474;8.616;2023-04-24T08:41:14;11.70;99.90
7720;DHT22;3902;49.474;8.616;2023-04-24T08:43:41;11.80;99.90
7720;DHT22;3902;49.474;8.616;2023-04-24T08:46:07;11.60;99.90
7720;DHT22;3902;49.474;8.616;2023-04-24T08:48:34;11.70;99.90
7720;DHT22;3902;49.474;8.616;2023-04-24T08:51:00;11.80;99.90
7720;DHT22;3902;49.474;8.616;2023-04-24T08:53:27;11.90;99.90
7720;DHT22;3902;49.474;8.616;2023-04-24T08:55:54;12.00;99.90
7720;DHT22;3902;49.474;8.616;2023-04-24T08:58:20;12.00;99.90
7720;DHT22;3902;49.474;8.616;2023-04-24T09:00:46;12.00;99.90
7720;DHT22;3902;49.474;8.616;2023-04-24T09:03:16;12.00;99.90
7720;DHT22;3902;49.474;8.616;2023-04-24T09:05:44;12.00;99.90
7720;DHT22;3902;49.474;8.616;2023-04-24T09:08:12;12.00;99.90
7720;DHT22;3902;49.474;8.616;2023-04-24T09:10:39;12.00;99.90
7720;DHT22;3902;49.474;8.616;2023-04-24T09:13:05;11.90;99.90
7720;DHT22;3902;49.474;8.616;2023-04-24T09:15:31;12.00;99.90
7720;DHT22;3902;49.474;8.616;2023-04-24T09:17:57;11.90;99.90
7720;DHT22;3902;49.474;8.616;2023-04-24T09:20:23;11.90;99.90
7720;DHT22;3902;49.474;8.616;2023-04-24T09:22:54;12.00;99.90
7720;DHT22;3902;49.474;8.616;2023-04-24T09:25:21;11.90;99.90
7720;DHT22;3902;49.474;8.616;2023-04-24T09:27:46;11.90;99.90
7720;DHT22;3902;49.474;8.616;2023-04-24T09:30:13;11.90;99.90
7720;DHT22;3902;49.474;8.616;2023-04-24T09:32:39;12.00;99.90
7720;DHT22;3902;49.474;8.616;2023-04-24T09:35:07;11.90;99.90
7720;DHT22;3902;49.474;8.616;2023-04-24T09:37:41;11.90;99.90
7720;DHT22;3902;49.474;8.616;2023-04-24T09:40:17;12.00;99.90
7720;DHT22;3902;49.474;8.616;2023-04-24T09:42:53;12.00;99.90
7720;DHT22;3902;49.474;8.616;2023-04-24T09:45:18;12.00;99.90
7720;DHT22;3902;49.474;8.616;2023-04-24T09:47:44;12.10;99.90
7720;DHT22;3902;49.474;8.616;2023-04-24T09:50:14;12.10;99.90
7720;DHT22;3902;49.474;8.616;2023-04-24T09:52:47;12.10;99.90
7720;DHT22;3902;49.474;8.616;2023-04-24T09:55:21;12.10;99.90
7720;DHT22;3902;49.474;8.616;2023-04-24T09:57:53;12.10;99.90
7720;DHT22;3902;49.474;8.616;2023-04-24T10:00:29;12.10;99.90
7720;DHT22;3902;49.474;8.616;2023-04-24T10:03:02;12.10;99.90
7720;DHT22;3902;49.474;8.616;2023-04-24T10:08:00;12.10;99.90
7720;DHT22;3902;49.474;8.616;2023-04-24T10:10:26;12.20;99.90
7720;DHT22;3902;49.474;8.616;2023-04-24T10:12:52;12.20;99.90
7720;DHT22;3902;49.474;8.616;2023-04-24T10:15:18;12.20;99.90
7720;DHT22;3902;49.474;8.616;2023-04-24T10:17:50;12.30;99.90
7720;DHT22;3902;49.474;8.616;2023-04-24T10:20:23;12.30;99.90
7720;DHT22;3902;49.474;8.616;2023-04-24T10:22:50;12.30;99.90
7720;DHT22;3902;49.474;8.616;2023-04-24T10:25:21;12.30;99.90
7720;DHT22;3902;49.474;8.616;2023-04-24T10:27:48;12.30;99.90
7720;DHT22;3902;49.474;8.616;2023-04-24T10:30:15;12.40;99.90
7720;DHT22;3902;49.474;8.616;2023-04-24T10:32:40;12.20;99.90
7720;DHT22;3902;49.474;8.616;2023-04-24T10:35:07;12.10;99.90
7720;DHT22;3902;49.474;8.616;2023-04-24T10:37:49;12.10;99.90
7720;DHT22;3902;49.474;8.616;2023-04-24T10:40:18;12.10;99.90
7720;DHT22;3902;49.474;8.616;2023-04-24T10:42:47;12.20;99.90
7720;DHT22;3902;49.474;8.616;2023-04-24T10:45:21;12.30;99.90
7720;DHT22;3902;49.474;8.616;2023-04-24T10:50:24;12.40;99.90
7720;DHT22;3902;49.474;8.616;2023-04-24T10:52:50;12.50;99.90
7720;DHT22;3902;49.474;8.616;2023-04-24T10:55:42;12.50;99.90
7720;DHT22;3902;49.474;8.616;2023-04-24T10:58:08;12.50;99.90
7720;DHT22;3902;49.474;8.616;2023-04-24T11:00:36;12.50;99.90
7720;DHT22;3902;49.474;8.616;2023-04-24T11:03:04;12.50;99.90
7720;DHT22;3902;49.474;8.616;2023-04-24T11:05:50;12.70;99.90
7720;DHT22;3902;49.474;8.616;2023-04-24T11:08:25;12.80;99.90
7720;DHT22;3902;49.474;8.616;2023-04-24T11:11:11;12.80;99.90
7720;DHT22;3902;49.474;8.616;2023-04-24T11:16:39;12.90;99.90
7720;DHT22;3902;49.474;8.616;2023-04-24T11:22:01;13.00;99.90
7720;DHT22;3902;49.474;8.616;2023-04-24T11:24:37;13.00;99.90
7720;DHT22;3902;49.474;8.616;2023-04-24T11:40:01;13.80;99.90
7720;DHT22;3902;49.474;8.616;2023-04-24T11:42:27;14.10;99.90
7720;DHT22;3902;49.474;8.616;2023-04-24T11:44:54;14.10;99.90
7720;DHT22;3902;49.474;8.616;2023-04-24T11:47:30;14.00;99.90
7720;DHT22;3902;49.474;8.616;2023-04-24T11:49:57;13.90;99.90
7720;DHT22;3902;49.474;8.616;2023-04-24T11:52:23;13.90;99.90
7720;DHT22;3902;49.474;8.616;2023-04-24T11:54:49;13.90;99.90
7720;DHT22;3902;49.474;8.616;2023-04-24T11:57:16;13.90;99.90
7720;DHT22;3902;49.474;8.616;2023-04-24T11:59:41;13.70;99.90
7720;DHT22;3902;49.474;8.616;2023-04-24T12:02:07;13.50;99.90
7720;DHT22;3902;49.474;8.616;2023-04-24T12:04:42;13.30;99.90
7720;DHT22;3902;49.474;8.616;2023-04-24T12:07:07;13.40;99.90
7720;DHT22;3902;49.474;8.616;2023-04-24T12:09:44;13.20;99.90
7720;DHT22;3902;49.474;8.616;2023-04-24T12:12:12;13.10;99.90
7720;DHT22;3902;49.474;8.616;2023-04-24T12:14:48;13.00;99.90
7720;DHT22;3902;49.474;8.616;2023-04-24T12:17:15;12.80;99.90
7720;DHT22;3902;49.474;8.616;2023-04-24T12:19:47;12.90;99.90
7720;DHT22;3902;49.474;8.616;2023-04-24T12:22:13;12.90;99.90
7720;DHT22;3902;49.474;8.616;2023-04-24T12:24:59;13.10;99.90
7720;DHT22;3902;49.474;8.616;2023-04-24T12:27:25;13.40;99.90
7720;DHT22;3902;49.474;8.616;2023-04-24T12:30:04;14.10;99.90
7720;DHT22;3902;49.474;8.616;2023-04-24T12:32:30;14.80;99.90
7720;DHT22;3902;49.474;8.616;2023-04-24T12:34:57;15.40;99.90
7720;DHT22;3902;49.474;8.616;2023-04-24T12:37:24;15.90;99.90
7720;DHT22;3902;49.474;8.616;2023-04-24T12:42:27;15.70;99.90
7720;DHT22;3902;49.474;8.616;2023-04-24T12:45:03;15.40;99.90
7720;DHT22;3902;49.474;8.616;2023-04-24T12:47:30;15.10;99.90
7720;DHT22;3902;49.474;8.616;2023-04-24T12:49:57;15.20;99.90
7720;DHT22;3902;49.474;8.616;2023-04-24T12:52:23;15.00;99.90
7720;DHT22;3902;49.474;8.616;2023-04-24T12:54:50;14.80;99.90
7720;DHT22;3902;49.474;8.616;2023-04-24T12:57:16;14.70;99.90
7720;DHT22;3902;49.474;8.616;2023-04-24T12:59:41;14.60;99.90
7720;DHT22;3902;49.474;8.616;2023-04-24T13:02:07;14.50;99.90
7720;DHT22;3902;49.474;8.616;2023-04-24T13:04:34;14.50;99.90
7720;DHT22;3902;49.474;8.616;2023-04-24T13:07:00;14.40;99.90
7720;DHT22;3902;49.474;8.616;2023-04-24T13:09:25;14.50;99.90
7720;DHT22;3902;49.474;8.616;2023-04-24T13:11:51;14.50;99.90
7720;DHT22;3902;49.474;8.616;2023-04-24T13:14:16;14.60;99.90
7720;DHT22;3902;49.474;8.616;2023-04-24T13:16:42;14.50;99.90
7720;DHT22;3902;49.474;8.616;2023-04-24T13:19:07;14.60;99.90
7720;DHT22;3902;49.474;8.616;2023-04-24T13:21:33;14.40;99.90
7720;DHT22;3902;49.474;8.616;2023-04-24T13:23:58;14.40;99.90
7720;DHT22;3902;49.474;8.616;2023-04-24T13:26:24;14.20;99.90
7720;DHT22;3902;49.474;8.616;2023-04-24T13:28:50;14.20;99.90
7720;DHT22;3902;49.474;8.616;2023-04-24T13:31:15;14.10;99.90
7720;DHT22;3902;49.474;8.616;2023-04-24T13:33:41;14.10;99.90
7720;DHT22;3902;49.474;8.616;2023-04-24T13:36:07;14.30;99.90
7720;DHT22;3902;49.474;8.616;2023-04-24T13:38:32;14.40;99.90
7720;DHT22;3902;49.474;8.616;2023-04-24T13:40:58;14.50;99.90
7720;DHT22;3902;49.474;8.616;2023-04-24T13:43:24;14.60;99.90
7720;DHT22;3902;49.474;8.616;2023-04-24T13:45:49;14.70;99.90
7720;DHT22;3902;49.474;8.616;2023-04-24T13:48:15;14.70;99.90
7720;DHT22;3902;49.474;8.616;2023-04-24T13:50:41;14.80;99.90
7720;DHT22;3902;49.474;8.616;2023-04-24T13:53:07;14.80;99.90
7720;DHT22;3902;49.474;8.616;2023-04-24T13:55:33;14.60;99.90
7720;DHT22;3902;49.474;8.616;2023-04-24T13:57:58;14.60;99.90
7720;DHT22;3902;49.474;8.616;2023-04-24T14:00:24;14.50;99.90
7720;DHT22;3902;49.474;8.616;2023-04-24T14:02:49;14.40;99.90
7720;DHT22;3902;49.474;8.616;2023-04-24T14:05:15;14.30;99.90
7720;DHT22;3902;49.474;8.616;2023-04-24T14:07:41;14.10;99.90
7720;DHT22;3902;49.474;8.616;2023-04-24T14:10:07;14.00;99.90
7720;DHT22;3902;49.474;8.616;2023-04-24T14:12:33;14.00;99.90
7720;DHT22;3902;49.474;8.616;2023-04-24T14:14:59;13.80;99.90
7720;DHT22;3902;49.474;8.616;2023-04-24T14:17:24;13.70;99.90
7720;DHT22;3902;49.474;8.616;2023-04-24T14:19:50;13.70;99.90
7720;DHT22;3902;49.474;8.616;2023-04-24T14:22:17;13.70;99.90
7720;DHT22;3902;49.474;8.616;2023-04-24T14:24:42;13.60;99.90
7720;DHT22;3902;49.474;8.616;2023-04-24T14:27:08;13.60;99.90
7720;DHT22;3902;49.474;8.616;2023-04-24T14:29:33;13.60;99.90
7720;DHT22;3902;49.474;8.616;2023-04-24T14:31:59;13.50;99.90
7720;DHT22;3902;49.474;8.616;2023-04-24T14:34:24;13.50;99.90
7720;DHT22;3902;49.474;8.616;2023-04-24T14:36:52;13.50;99.90
7720;DHT22;3902;49.474;8.616;2023-04-24T14:39:17;13.50;99.90
7720;DHT22;3902;49.474;8.616;2023-04-24T14:41:43;13.40;99.90
7720;DHT22;3902;49.474;8.616;2023-04-24T14:44:08;13.30;99.90
7720;DHT22;3902;49.474;8.616;2023-04-24T14:46:34;13.30;99.90
7720;DHT22;3902;49.474;8.616;2023-04-24T14:49:00;13.40;99.90
7720;DHT22;3902;49.474;8.616;2023-04-24T14:51:25;13.40;99.90
7720;DHT22;3902;49.474;8.616;2023-04-24T14:53:51;13.40;99.90
7720;DHT22;3902;49.474;8.616;2023-04-24T14:56:17;13.40;99.90
7720;DHT22;3902;49.474;8.616;2023-04-24T14:58:42;13.40;99.90
7720;DHT22;3902;49.474;8.616;2023-04-24T15:01:08;13.30;99.90
7720;DHT22;3902;49.474;8.616;2023-04-24T15:03:33;13.30;99.90
7720;DHT22;3902;49.474;8.616;2023-04-24T15:05:59;13.60;99.90
7720;DHT22;3902;49.474;8.616;2023-04-24T15:08:24;13.80;99.90
7720;DHT22;3902;49.474;8.616;2023-04-24T15:10:50;14.00;99.90
7720;DHT22;3902;49.474;8.616;2023-04-24T15:13:16;13.80;99.90
7720;DHT22;3902;49.474;8.616;2023-04-24T15:15:41;13.90;99.90
7720;DHT22;3902;49.474;8.616;2023-04-24T15:18:08;13.80;99.90
7720;DHT22;3902;49.474;8.616;2023-04-24T15:20:35;13.70;99.90
7720;DHT22;3902;49.474;8.616;2023-04-24T15:23:01;13.80;99.90
7720;DHT22;3902;49.474;8.616;2023-04-24T15:25:27;13.70;99.90
7720;DHT22;3902;49.474;8.616;2023-04-24T15:27:53;13.50;99.90
7720;DHT22;3902;49.474;8.616;2023-04-24T15:30:18;13.50;99.90
7720;DHT22;3902;49.474;8.616;2023-04-24T15:32:44;13.40;99.90
7720;DHT22;3902;49.474;8.616;2023-04-24T15:35:09;13.30;99.90
7720;DHT22;3902;49.474;8.616;2023-04-24T15:37:35;13.30;99.90
7720;DHT22;3902;49.474;8.616;2023-04-24T15:40:01;13.30;99.90
7720;DHT22;3902;49.474;8.616;2023-04-24T15:42:29;13.20;99.90
7720;DHT22;3902;49.474;8.616;2023-04-24T15:44:54;13.30;99.90
7720;DHT22;3902;49.474;8.616;2023-04-24T15:47:20;13.40;99.90
7720;DHT22;3902;49.474;8.616;2023-04-24T15:49:46;13.60;99.90
7720;DHT22;3902;49.474;8.616;2023-04-24T15:52:11;13.70;99.90
7720;DHT22;3902;49.474;8.616;2023-04-24T15:54:38;13.70;99.90
7720;DHT22;3902;49.474;8.616;2023-04-24T15:57:06;13.80;99.90
7720;DHT22;3902;49.474;8.616;2023-04-24T15:59:31;13.80;99.90
7720;DHT22;3902;49.474;8.616;2023-04-24T16:01:57;13.80;99.90
7720;DHT22;3902;49.474;8.616;2023-04-24T16:04:23;13.90;99.90
7720;DHT22;3902;49.474;8.616;2023-04-24T16:06:48;13.80;99.90
7720;DHT22;3902;49.474;8.616;2023-04-24T16:09:14;13.80;99.90
7720;DHT22;3902;49.474;8.616;2023-04-24T16:11:39;13.80;99.90
7720;DHT22;3902;49.474;8.616;2023-04-24T16:14:05;13.70;99.90
7720;DHT22;3902;49.474;8.616;2023-04-24T16:16:30;13.70;99.90
7720;DHT22;3902;49.474;8.616;2023-04-24T16:18:56;13.50;99.90
7720;DHT22;3902;49.474;8.616;2023-04-24T16:21:22;13.50;99.90
7720;DHT22;3902;49.474;8.616;2023-04-24T16:23:47;13.50;99.90